Flight Track Log - Related Links

Times and Time Zones

All times are in EDT time to prevent confusion due to time zone crossing. See the DAL1903 flight status page for this flight to view local times or setup timezone preferences in your user account.

Time Position Orientation Groundspeed Altitude Reporting Facility
EDT Latitude Longitude Course Direction KTS MPH feet Rate Location/Type
Tue 11:15:30 AM 40.8167 -73.9167 339° North 197 227 2,400  Level New York TRACON
Tue 11:16:30 AM 40.8833 -73.9500 339° North 244 281 5,700 3,300 Climbing New York TRACON
Tue 11:17:30 AM 40.9000 -74.0167 288° West 244 281 9,000 3,000 Climbing New York TRACON
Tue 11:18:30 AM 40.8500 -74.1167 237° Southwest 280 322 11,700 2,050 Climbing New York TRACON
Tue 11:19:30 AM 40.8000 -74.2167 237° Southwest 351 404 13,100 1,753 Climbing New York TRACON
Tue 11:21:28 AM 40.6878 -74.4439 237° Southwest 396 456 16,900 1,933 Climbing New York Center
Tue 11:22:30 AM 40.6219 -74.5469 230° Southwest 410 472 18,900 2,132 Climbing New York Center
Tue 11:23:29 AM 40.5353 -74.6486 222° Southwest 415 478 21,200 1,950 Climbing New York Center
Tue 11:24:30 AM 40.4506 -74.7583 225° Southwest 421 484 22,800 1,765 Climbing New York Center
Tue 11:25:28 AM 40.3856 -74.8881 237° Southwest 427 491 24,700 2,136 Climbing New York Center
Tue 11:26:28 AM 40.3206 -75.0203 237° Southwest 432 497 27,000 2,231 Climbing New York Center
Tue 11:27:29 AM 40.2556 -75.1442 236° Southwest 432 497 29,200 1,835 Climbing New York Center
Tue 11:28:29 AM 40.1925 -75.2681 236° Southwest 426 490 30,700 1,289 Climbing New York Center
Tue 11:29:30 AM 40.1272 -75.3914 235° Southwest 421 484 31,800 942 Climbing New York Center
Tue 11:30:30 AM 40.0458 -75.5025 226° Southwest 421 484 32,600 756 Climbing New York Center
Tue 11:31:29 AM 39.9661 -75.6164 228° Southwest 444 511 33,300 497 Climbing New York Center
Tue 11:33:19 AM 39.8133 -75.8481 229° Southwest 420 483 34,000 247 Climbing Washington Center
Tue 11:34:19 AM 39.7358 -75.9667 230° Southwest 426 490 34,000  Level Washington Center
Tue 11:35:19 AM 39.6606 -76.0875 231° Southwest 432 497 34,000  Level Washington Center
Tue 11:36:18 AM 39.5828 -76.2053 229° Southwest 432 497 34,000  Level Washington Center
Tue 11:37:18 AM 39.5050 -76.3231 229° Southwest 432 497 34,000  Level Washington Center
Tue 11:38:19 AM 39.4292 -76.4458 231° Southwest 432 497 34,000  Level Washington Center
Tue 11:39:18 AM 39.3533 -76.5631 230° Southwest 432 497 34,000  Level Washington Center
Tue 11:40:18 AM 39.2772 -76.6856 231° Southwest 432 497 34,000  Level Washington Center
Tue 11:41:18 AM 39.1992 -76.7994 229° Southwest 432 497 34,000  Level Washington Center
Tue 11:42:18 AM 39.1250 -76.9214 232° Southwest 432 497 34,000  Level Washington Center
Tue 11:43:18 AM 39.0550 -77.0244 229° Southwest 432 497 34,000  Level Washington Center
Tue 11:44:19 AM 38.9619 -77.1347 223° Southwest 437 503 34,000  Level Washington Center
Tue 11:45:19 AM 38.8689 -77.2314 219° Southwest 437 503 34,000  Level Washington Center
Tue 11:46:19 AM 38.7756 -77.3411 223° Southwest 447 514 34,000  Level Washington Center
Tue 11:47:18 AM 38.6844 -77.4347 219° Southwest 447 514 34,000  Level Washington Center
Tue 11:48:19 AM 38.5911 -77.5361 220° Southwest 441 507 34,000  Level Washington Center
Tue 11:49:18 AM 38.4914 -77.6475 221° Southwest 432 497 34,000  Level Washington Center
Tue 11:50:18 AM 38.4064 -77.7353 219° Southwest 437 503 34,000  Level Washington Center
Tue 11:51:19 AM 38.3044 -77.8461 220° Southwest 442 509 34,000  Level Washington Center
Tue 11:52:18 AM 38.2214 -77.9333 220° Southwest 435 501 34,000  Level Washington Center
Tue 11:53:18 AM 38.1169 -78.0411 219° Southwest 440 506 34,000 250 Level Washington Center
Tue 11:54:18 AM 38.0339 -78.1306 220° Southwest 440 506 34,500 650 Climbing Washington Center
Tue 11:55:18 AM 37.9442 -78.2275 220° Southwest 435 501 35,300 744 Climbing Washington Center
Tue 11:56:19 AM 37.8461 -78.3161 216° Southwest 435 501 36,000 347 Climbing Washington Center
Tue 11:57:19 AM 37.7417 -78.4150 217° Southwest 430 495 36,000  Level Washington Center
Tue 11:58:19 AM 37.6456 -78.5058 217° Southwest 430 495 36,000  Level Washington Center
Tue 11:59:18 AM 37.5494 -78.5964 217° Southwest 436 502 36,000  Level Washington Center
Tue 12:00:18 PM 37.4514 -78.6867 216° Southwest 436 502 36,000  Level Washington Center
Tue 12:01:18 PM 37.3636 -78.7667 216° Southwest 441 507 36,000  Level Washington Center
Tue 12:02:18 PM 37.2675 -78.8567 217° Southwest 441 507 36,000  Level Washington Center
Tue 12:03:19 PM 37.1711 -78.9489 217° Southwest 441 507 36,000  Level Washington Center
Tue 12:04:19 PM 37.0767 -79.0361 216° Southwest 441 507 36,000  Level Washington Center
Tue 12:05:19 PM 36.9825 -79.1228 216° Southwest 441 507 36,000  Level Washington Center
Tue 12:06:18 PM 36.8794 -79.2194 217° Southwest 436 502 36,000  Level Washington Center
Tue 12:07:54 PM 36.7281 -79.3561 216° Southwest 443 510 36,000  Level Atlanta Center
Tue 12:08:54 PM 36.6353 -79.4392 216° Southwest 436 502 36,000  Level Atlanta Center
Tue 12:09:54 PM 36.5425 -79.5244 216° Southwest 424 488 36,000  Level Atlanta Center
Tue 12:10:54 PM 36.4619 -79.5989 217° Southwest 417 480 36,000  Level Atlanta Center
Tue 12:11:54 PM 36.3669 -79.6839 216° Southwest 422 486 36,000  Level Atlanta Center
Tue 12:12:54 PM 36.2739 -79.7661 215° Southwest 417 480 36,000  Level Atlanta Center
Tue 12:13:54 PM 36.1808 -79.8483 216° Southwest 417 480 36,000  Level Atlanta Center
Tue 12:14:54 PM 36.0775 -79.9411 216° Southwest 422 486 36,000  Level Atlanta Center
Tue 12:15:54 PM 35.9733 -80.0106 208° Southwest 422 486 36,000  Level Atlanta Center
Tue 12:16:54 PM 35.8647 -80.0644 202° Southwest 422 486 36,000  Level Atlanta Center
Tue 12:17:54 PM 35.7639 -80.1131 201° Southwest 427 491 36,000  Level Atlanta Center
Tue 12:18:54 PM 35.6553 -80.1744 205° Southwest 433 498 36,000  Level Atlanta Center
Tue 12:19:54 PM 35.5464 -80.2281 202° Southwest 433 498 36,000  Level Atlanta Center
Tue 12:20:54 PM 35.4333 -80.2842 202° Southwest 433 498 36,000  Level Atlanta Center
Tue 12:23:16 PM 35.1742 -80.4117 202° Southwest 440 506 36,000  Level Jacksonville Center
Tue 12:24:16 PM 35.0628 -80.4683 203° Southwest 429 494 36,000  Level Jacksonville Center
Tue 12:25:16 PM 34.9428 -80.5247 201° Southwest 437 503 36,000  Level Jacksonville Center
Tue 12:26:16 PM 34.8311 -80.5811 203° Southwest 432 497 36,000 -50 Level Jacksonville Center
Tue 12:27:16 PM 34.7258 -80.6344 203° Southwest 427 491 35,900  Descending Jacksonville Center
Tue 12:28:16 PM 34.6161 -80.6878 202° Southwest 427 491 36,000 50 Climbing Jacksonville Center
Tue 12:29:16 PM 34.5025 -80.7461 203° Southwest 444 511 36,000  Level Jacksonville Center
Tue 12:30:16 PM 34.4081 -80.8364 218° Southwest 434 499 36,000  Level Jacksonville Center
Tue 12:31:16 PM 34.3178 -80.9267 220° Southwest 433 498 36,000  Level Jacksonville Center
Tue 12:32:16 PM 34.2333 -81.0089 219° Southwest 418 481 36,000  Level Jacksonville Center
Tue 12:33:16 PM 34.1531 -81.0833 218° Southwest 407 468 36,000  Level Jacksonville Center
Tue 12:34:16 PM 34.0647 -81.1728 220° Southwest 413 475 36,000  Level Jacksonville Center
Tue 12:35:16 PM 33.9739 -81.2547 217° Southwest 418 481 36,000  Level Jacksonville Center
Tue 12:36:16 PM 33.8811 -81.3442 219° Southwest 418 481 36,000  Level Jacksonville Center
Tue 12:38:42 PM 33.6503 -81.5608 218° Southwest 414 476 36,000  Level Atlanta Center
Tue 12:39:42 PM 33.5581 -81.6458 218° Southwest 420 483 36,000  Level Atlanta Center
Tue 12:40:42 PM 33.4658 -81.7331 218° Southwest 425 489 36,000  Level Atlanta Center
Tue 12:41:42 PM 33.3756 -81.8200 219° Southwest 425 489 36,000  Level Atlanta Center
Tue 12:42:42 PM 33.2853 -81.9042 218° Southwest 425 489 36,000  Level Atlanta Center
Tue 12:43:42 PM 33.1928 -81.9858 216° Southwest 425 489 36,000  Level Atlanta Center
Tue 12:44:42 PM 33.1000 -82.0725 218° Southwest 425 489 36,000  Level Atlanta Center
Tue 12:45:42 PM 33.0075 -82.1611 219° Southwest 425 489 36,000  Level Atlanta Center
Tue 12:46:42 PM 32.9150 -82.2472 218° Southwest 420 483 36,000  Level Atlanta Center
Tue 12:47:42 PM 32.8242 -82.3308 218° Southwest 420 483 36,000  Level Atlanta Center
Tue 12:48:42 PM 32.7336 -82.4164 218° Southwest 420 483 36,000  Level Atlanta Center
Tue 12:49:42 PM 32.6428 -82.4947 216° Southwest 420 483 36,000  Level Atlanta Center
Tue 12:50:42 PM 32.5500 -82.5825 219° Southwest 420 483 36,000  Level Atlanta Center
Tue 12:51:42 PM 32.4714 -82.6625 221° Southwest 420 483 36,000  Level Atlanta Center
Tue 12:52:42 PM 32.3786 -82.7475 218° Southwest 420 483 36,000  Level Atlanta Center
Tue 12:53:42 PM 32.2856 -82.8300 217° Southwest 420 483 36,000  Level Atlanta Center
Tue 12:54:42 PM 32.1922 -82.9172 218° Southwest 420 483 36,000  Level Atlanta Center
Tue 12:55:42 PM 32.0969 -82.9994 216° Southwest 425 489 36,000  Level Atlanta Center
Tue 12:56:42 PM 32.0058 -83.0861 219° Southwest 425 489 36,000  Level Atlanta Center
Tue 12:57:42 PM 31.9106 -83.1703 217° Southwest 425 489 36,000  Level Atlanta Center
Tue 12:58:51 PM 31.7964 -83.2739 218° Southwest 405 466 36,000  Level Jacksonville Center
Tue 12:59:51 PM 31.7022 -83.3567 217° Southwest 415 478 36,000 -100 Level Jacksonville Center
Tue 01:00:51 PM 31.6036 -83.4342 214° Southwest 425 489 35,800 -500 Descending Jacksonville Center
Tue 01:01:51 PM 31.4847 -83.4506 187° South 414 476 35,000 -400 Descending Jacksonville Center
Tue 01:02:51 PM 31.3614 -83.4569 183° South 427 491 35,000  Level Jacksonville Center
Tue 01:03:51 PM 31.2425 -83.4661 184° South 432 497 35,000  Level Jacksonville Center
Tue 01:04:51 PM 31.1358 -83.4750 184° South 437 503 35,000  Level Jacksonville Center
Tue 01:05:51 PM 31.0147 -83.4817 183° South 437 503 35,000  Level Jacksonville Center
Tue 01:06:51 PM 30.8936 -83.4881 183° South 437 503 35,000  Level Jacksonville Center
Tue 01:07:51 PM 30.7661 -83.4969 183° South 425 489 35,000  Level Jacksonville Center
Tue 01:08:51 PM 30.6450 -83.5058 184° South 425 489 35,000  Level Jacksonville Center
Tue 01:09:51 PM 30.5239 -83.5147 184° South 435 501 35,000  Level Jacksonville Center
Tue 01:10:51 PM 30.4047 -83.5211 183° South 440 506 35,000  Level Jacksonville Center
Tue 01:11:51 PM 30.2817 -83.5228 181° South 440 506 35,000  Level Jacksonville Center
Tue 01:12:51 PM 30.1628 -83.5100 175° South 440 506 35,000  Level Jacksonville Center
Tue 01:13:51 PM 30.0417 -83.4925 173° South 440 506 35,000  Level Jacksonville Center
Tue 01:14:51 PM 29.9311 -83.4797 174° South 440 506 35,000  Level Jacksonville Center
Tue 01:15:51 PM 29.8100 -83.4647 174° South 440 506 35,000 -100 Level Jacksonville Center
Tue 01:16:51 PM 29.6869 -83.4497 174° South 440 506 34,800 -900 Descending Jacksonville Center
Tue 01:17:51 PM 29.5658 -83.4347 174° South 445 512 33,200 -1,600 Descending Jacksonville Center
Tue 01:18:51 PM 29.4469 -83.4172 173° South 445 512 31,600 -1,750 Descending Jacksonville Center
Tue 01:19:51 PM 29.3281 -83.4047 175° South 439 505 29,700 -1,300 Descending Jacksonville Center
Tue 01:20:51 PM 29.2050 -83.3897 174° South 439 505 29,000 -350 Descending Jacksonville Center
Tue 01:21:51 PM 29.0861 -83.3750 174° South 444 511 29,000 -750 Level Jacksonville Center
Tue 01:22:51 PM 28.9672 -83.3600 174° South 444 511 27,500 -1,750 Descending Jacksonville Center
Tue 01:23:51 PM 28.8503 -83.3217 164° South 444 511 25,500 -1,250 Descending Jacksonville Center
Tue 01:24:51 PM 28.7378 -83.2619 155° Southeast 434 499 25,000 -1,000 Descending Jacksonville Center
Tue 01:25:51 PM 28.6294 -83.2000 153° Southeast 439 505 23,500 -2,195 Descending Jacksonville Center
Tue 01:27:35 PM 28.4333 -83.1000 156° South 409 471 19,000 -2,524 Descending Tampa TRACON
Tue 01:28:35 PM 28.3333 -83.0500 156° South 401 461 16,600 -2,450 Descending Tampa TRACON
Tue 01:29:35 PM 28.2500 -83.0000 152° Southeast 379 436 14,100 -2,400 Descending Tampa TRACON
Tue 01:30:35 PM 28.1500 -82.9500 156° South 359 413 11,800 -1,950 Descending Tampa TRACON
Tue 01:31:35 PM 28.0500 -82.9000 156° South 342 394 10,200 -1,286 Descending Tampa TRACON
Tue 01:32:41 PM 27.9667 -82.8833 170° South 279 321 9,100 -1,286 Descending Tampa TRACON
Tue 01:33:41 PM 27.9000 -82.8500 156° South 279 321 7,500 -1,550 Descending Tampa TRACON
Tue 01:34:41 PM 27.8333 -82.8167 156° South 269 310 6,000 -750 Descending Tampa TRACON
Tue 01:35:41 PM 27.7500 -82.8000 170° South 265 305 6,000  Level Tampa TRACON
Tue 01:36:42 PM 27.6833 -82.7833 168° South 240 276 6,000  Level Tampa TRACON
Tue 01:37:42 PM 27.6333 -82.7500 149° Southeast 219 252 6,000 -842 Level Tampa TRACON
Tue 01:38:36 PM 27.5833 -82.7333 164° South 211 243 4,400 -1,200 Descending Tampa TRACON
Tue 01:39:42 PM 27.5333 -82.7167 164° South 180 207 3,600 -850 Descending Tampa TRACON
Tue 01:40:36 PM 27.5000 -82.6833 138° Southeast 168 193 2,700 -789 Descending Tampa TRACON
Tue 01:41:36 PM 27.4833 -82.6500 119° Southeast 130 150 2,100 -650 Descending Tampa TRACON
Tue 01:42:36 PM 27.4500 -82.6167 138° Southeast 135 155 1,400 -684 Descending Tampa TRACON
Tue 01:43:30 PM 27.4333 -82.6000 138° Southeast 129 148 800 -667 Descending Tampa TRACON
Tue 01:45:00 PM 27.3954 -82.5544 180° South  Level Estimated
Tue 01:52:00 PM 27.3954 -82.5544 180° South  Level Estimated
Tue 01:53:00 PM 27.3954 -82.5544 180° South  Level Estimated

Login

Don't have an account? Register now (free) for customized features, flight alerts, and more!